ZYTX/SHE METAR and TAF weather

Enter ICAO airport designator
Station Type Date Time Source
ZYTX METAR 2019/10/15 04:30 UTC NOAA

ZYTX 150430Z 20003MPS 140V270 CAVOK 13/M10 Q1031 NOSIG


Station Type Date Time Source
ZYTX Decoded METAR 2019/10/15 04:30 UTC NOAA

Shenyang / Taokian, China (ZYTX) 41-48N 123-24E
Oct 15, 2019 - 12:30 AM EDT / 2019.10.15 0430 UTC
Wind: from the SSW (200 degrees) at 7 MPH (6 KT) (direction variable):0
Visibility: greater than 7 mile(s):0
Temperature: 55 F (13 C)
Dew Point: 14 F (-10 C)
Relative Humidity: 19%
Pressure (altimeter): 30.45 in. Hg (1031 hPa)
ob: ZYTX 150430Z 20003MPS 140V270 CAVOK 13/M10 Q1031 NOSIG
cycle: 4

Station Type Date Time Source
ZYTX TAF 2019/10/15 06:03 UTC NOAA

TAF ZYTX 150227Z 1506/1606 20004MPS CAVOK TX18/1506Z TN00/1521Z

Example: see airport list